createdAt,value
2019-05-20T00:00:17.082Z,14.90
2019-05-20T00:02:46.354Z,15.67
2019-05-20T00:05:15.268Z,15.53
2019-05-20T00:07:44.186Z,14.93
2019-05-20T00:10:13.164Z,15.73
2019-05-20T00:12:42.219Z,14.30
2019-05-20T00:15:11.177Z,15.23
2019-05-20T00:17:40.126Z,16.23
2019-05-20T00:20:10.376Z,15.37
2019-05-20T00:22:39.361Z,16.10
2019-05-20T00:25:08.824Z,15.27
2019-05-20T00:27:38.015Z,15.23
2019-05-20T00:30:08.019Z,15.30
2019-05-20T00:32:42.084Z,15.13
2019-05-20T00:35:08.479Z,15.00
2019-05-20T00:37:37.473Z,14.77
2019-05-20T00:40:07.077Z,14.67
2019-05-20T00:42:36.198Z,15.40
2019-05-20T00:45:05.718Z,14.70
2019-05-20T00:47:34.990Z,15.67
2019-05-20T00:50:04.267Z,14.83
2019-05-20T00:52:33.365Z,15.03
2019-05-20T00:55:02.623Z,15.47
2019-05-20T00:57:31.764Z,14.60
2019-05-20T01:00:01.015Z,15.23
2019-05-20T01:02:30.025Z,16.10
2019-05-20T01:04:59.300Z,15.63
2019-05-20T01:07:28.554Z,16.27
2019-05-20T01:09:57.388Z,15.97
2019-05-20T01:12:27.355Z,16.27
2019-05-20T01:14:56.230Z,16.53
2019-05-20T01:17:25.290Z,15.97
2019-05-20T01:19:54.224Z,15.63
2019-05-20T01:22:23.318Z,15.93
2019-05-20T01:24:52.398Z,16.67
2019-05-20T01:27:21.266Z,16.27
2019-05-20T01:29:50.149Z,16.77
2019-05-20T01:32:19.075Z,16.30
2019-05-20T01:34:47.979Z,16.77
2019-05-20T01:37:16.905Z,17.03
2019-05-20T01:39:45.883Z,16.20
2019-05-20T01:42:17.654Z,17.00
2019-05-20T01:44:46.466Z,16.00
2019-05-20T01:47:15.321Z,18.23
2019-05-20T01:49:44.249Z,16.83
2019-05-20T01:52:13.184Z,17.57
2019-05-20T01:54:42.177Z,17.70
2019-05-20T01:57:11.304Z,18.37
2019-05-20T01:59:40.393Z,18.43
2019-05-20T02:02:09.333Z,16.40
2019-05-20T02:04:38.294Z,18.03
2019-05-20T02:07:07.119Z,17.93
2019-05-20T02:09:35.955Z,18.00
2019-05-20T02:12:04.980Z,18.60
2019-05-20T02:14:38.536Z,16.80
2019-05-20T02:17:07.470Z,18.97
2019-05-20T02:19:36.462Z,19.53
2019-05-20T02:22:05.440Z,20.10
2019-05-20T02:24:35.854Z,19.57
2019-05-20T02:27:04.762Z,19.73
2019-05-20T02:29:33.684Z,19.97
2019-05-20T02:32:02.530Z,18.50
2019-05-20T02:34:31.450Z,18.47
2019-05-20T02:37:00.454Z,19.07
2019-05-20T02:39:29.363Z,19.63
2019-05-20T02:41:58.329Z,18.67
2019-05-20T02:44:27.361Z,19.90
2019-05-20T02:46:56.231Z,18.60
2019-05-20T02:49:25.330Z,18.57
2019-05-20T02:51:54.365Z,19.47
2019-05-20T02:54:23.289Z,18.20
2019-05-20T02:56:52.187Z,19.20
2019-05-20T02:59:21.110Z,19.07
2019-05-20T03:01:49.933Z,18.63
2019-05-20T03:04:18.939Z,20.07
2019-05-20T03:06:47.828Z,19.73
2019-05-20T03:09:16.686Z,19.77
2019-05-20T03:11:45.612Z,20.77
2019-05-20T03:14:14.590Z,19.83
2019-05-20T03:16:43.513Z,19.50
2019-05-20T03:19:12.557Z,20.17
2019-05-20T03:21:41.385Z,20.07
2019-05-20T03:24:10.227Z,20.50
2019-05-20T03:26:39.173Z,19.50
2019-05-20T03:29:08.079Z,21.17
2019-05-20T03:31:36.952Z,19.90
2019-05-20T03:34:06.938Z,21.33
2019-05-20T03:36:35.836Z,20.67
2019-05-20T03:39:06.031Z,19.93
2019-05-20T03:41:34.916Z,20.23
2019-05-20T03:44:03.914Z,20.97
2019-05-20T03:46:32.841Z,21.17
2019-05-20T03:49:01.722Z,20.80
2019-05-20T03:51:30.669Z,20.27
2019-05-20T03:53:59.503Z,21.43
2019-05-20T03:56:28.413Z,20.73
2019-05-20T03:58:57.450Z,21.13
2019-05-20T04:01:26.263Z,21.27
2019-05-20T04:03:55.148Z,20.87
2019-05-20T04:06:24.118Z,22.37
2019-05-20T04:08:52.950Z,21.03
2019-05-20T04:11:21.963Z,21.93
2019-05-20T04:13:50.881Z,21.03
2019-05-20T04:16:19.784Z,21.63
2019-05-20T04:18:48.857Z,21.37
2019-05-20T04:21:17.733Z,20.97
2019-05-20T04:23:46.713Z,21.90
2019-05-20T04:26:16.141Z,22.00
2019-05-20T04:28:45.210Z,21.53
2019-05-20T04:31:14.646Z,20.50
2019-05-20T04:33:44.507Z,22.30
2019-05-20T04:36:14.462Z,21.90
2019-05-20T04:38:43.557Z,21.20
2019-05-20T04:41:12.799Z,22.43
2019-05-20T04:43:41.980Z,21.43
2019-05-20T04:46:11.094Z,21.47
2019-05-20T04:48:40.022Z,21.93
2019-05-20T04:51:09.188Z,21.00
2019-05-20T04:53:38.459Z,21.40
2019-05-20T04:56:07.538Z,22.20
2019-05-20T04:58:36.663Z,21.60
2019-05-20T05:01:05.568Z,20.63
2019-05-20T05:03:34.499Z,21.37
2019-05-20T05:06:03.634Z,20.53
2019-05-20T05:08:32.650Z,21.20
2019-05-20T05:11:01.603Z,20.37
2019-05-20T05:13:30.671Z,22.50
2019-05-20T05:16:00.498Z,21.30
2019-05-20T05:18:29.446Z,19.77
2019-05-20T05:20:58.403Z,19.63
2019-05-20T05:23:27.616Z,19.03
2019-05-20T05:25:56.517Z,19.60
2019-05-20T05:28:25.546Z,18.90
2019-05-20T05:30:54.638Z,18.97
2019-05-20T05:33:23.733Z,21.80
2019-05-20T05:35:53.846Z,20.13
2019-05-20T05:38:23.304Z,18.33
2019-05-20T05:40:52.458Z,18.67
2019-05-20T05:43:21.599Z,18.60
2019-05-20T05:45:50.725Z,17.57
2019-05-20T05:48:20.936Z,16.80
2019-05-20T05:50:49.761Z,18.80
2019-05-20T05:53:18.626Z,18.57
2019-05-20T05:55:47.496Z,17.87
2019-05-20T05:58:16.603Z,17.53
2019-05-20T06:00:45.653Z,18.60
2019-05-20T06:03:14.588Z,18.50
2019-05-20T06:05:43.515Z,18.03
2019-05-20T06:08:12.412Z,17.30
2019-05-20T06:10:41.259Z,18.63
2019-05-20T06:13:10.151Z,17.70
2019-05-20T06:15:39.081Z,18.00
2019-05-20T06:18:07.920Z,17.97
2019-05-20T06:20:36.917Z,18.27
2019-05-20T06:23:06.010Z,18.50
2019-05-20T06:25:35.299Z,19.00
2019-05-20T06:28:05.333Z,18.33
2019-05-20T06:30:40.044Z,19.37
2019-05-20T06:33:09.083Z,19.57
2019-05-20T06:35:38.190Z,18.90
2019-05-20T06:38:10.789Z,18.50
2019-05-20T06:40:39.865Z,18.83
2019-05-20T06:43:08.741Z,18.87
2019-05-20T06:45:37.765Z,18.53
2019-05-20T06:48:06.657Z,19.33
2019-05-20T06:50:35.747Z,18.57
2019-05-20T06:53:04.726Z,19.57
2019-05-20T06:55:33.762Z,19.33
2019-05-20T06:58:02.629Z,19.03
2019-05-20T07:00:34.150Z,19.07
2019-05-20T07:03:03.177Z,18.83
2019-05-20T07:05:32.050Z,19.27
2019-05-20T07:08:01.492Z,19.93
2019-05-20T07:10:32.367Z,20.33
2019-05-20T07:13:01.747Z,19.37
2019-05-20T07:15:30.987Z,19.37
2019-05-20T07:18:00.197Z,18.90
2019-05-20T07:20:29.596Z,18.40
2019-05-20T07:22:58.993Z,18.43
2019-05-20T07:25:31.434Z,17.80
2019-05-20T07:28:00.361Z,19.43
2019-05-20T07:30:29.819Z,19.30
2019-05-20T07:32:58.691Z,20.70
2019-05-20T07:35:30.793Z,19.57
2019-05-20T07:37:58.380Z,19.03
2019-05-20T07:40:32.038Z,18.47
2019-05-20T07:43:01.437Z,18.43
2019-05-20T07:45:33.669Z,18.70
2019-05-20T07:48:03.363Z,19.50
2019-05-20T07:50:33.837Z,18.53
2019-05-20T07:53:03.037Z,19.30
2019-05-20T07:55:35.318Z,18.93
2019-05-20T07:58:08.407Z,18.90
2019-05-20T08:00:37.734Z,19.10
2019-05-20T08:03:06.847Z,18.57
2019-05-20T08:05:36.067Z,18.67
2019-05-20T08:08:05.183Z,19.23
2019-05-20T08:10:34.226Z,18.60
2019-05-20T08:13:03.278Z,19.53
2019-05-20T08:15:32.223Z,16.93
2019-05-20T08:18:01.407Z,18.97
2019-05-20T08:20:30.460Z,20.27
2019-05-20T08:22:59.566Z,20.80
2019-05-20T08:25:28.579Z,18.80
2019-05-20T08:27:57.485Z,20.20
2019-05-20T08:30:35.142Z,20.20
2019-05-20T08:33:04.617Z,19.97
2019-05-20T08:35:33.737Z,20.37
2019-05-20T08:38:02.699Z,19.80
2019-05-20T08:40:31.962Z,20.00
2019-05-20T08:43:01.164Z,18.67
2019-05-20T08:45:30.143Z,19.37
2019-05-20T08:47:59.593Z,19.67
2019-05-20T08:50:28.707Z,17.07
2019-05-20T08:52:57.965Z,18.13
2019-05-20T08:55:27.257Z,19.83
2019-05-20T08:57:56.468Z,19.60
2019-05-20T09:00:25.836Z,18.40
2019-05-20T09:02:55.013Z,19.03
2019-05-20T09:05:27.689Z,17.33
2019-05-20T09:08:03.097Z,18.03
2019-05-20T09:10:25.600Z,18.33
2019-05-20T09:12:54.506Z,17.10
2019-05-20T09:15:23.646Z,15.60
2019-05-20T09:17:52.779Z,17.13
2019-05-20T09:20:22.050Z,17.03
2019-05-20T09:22:51.088Z,17.00
2019-05-20T09:25:29.004Z,18.03
2019-05-20T09:27:58.060Z,17.87
2019-05-20T09:30:27.103Z,18.97
2019-05-20T09:32:56.302Z,17.90
2019-05-20T09:35:25.311Z,18.87
2019-05-20T09:37:54.227Z,17.70
2019-05-20T09:40:51.621Z,17.33
2019-05-20T09:43:20.574Z,18.10
2019-05-20T09:46:05.804Z,17.87
2019-05-20T09:48:20.095Z,18.10
2019-05-20T09:50:49.015Z,17.90
2019-05-20T09:53:17.870Z,19.47
2019-05-20T09:55:46.767Z,17.17
2019-05-20T09:58:15.700Z,15.83
2019-05-20T10:00:44.855Z,16.63
2019-05-20T10:03:13.755Z,16.87
2019-05-20T10:05:42.677Z,15.70
2019-05-20T10:08:11.676Z,15.97
2019-05-20T10:10:40.586Z,15.50
2019-05-20T10:13:09.558Z,16.57
2019-05-20T10:15:38.649Z,15.90
2019-05-20T10:18:08.600Z,16.13
2019-05-20T10:20:37.576Z,15.87
2019-05-20T10:23:06.721Z,14.53
2019-05-20T10:25:35.862Z,14.60
2019-05-20T10:28:04.862Z,14.47
2019-05-20T10:30:33.897Z,14.15
2019-05-20T10:33:02.985Z,15.48
2019-05-20T10:35:31.832Z,14.78
2019-05-20T10:38:00.735Z,14.65
2019-05-20T10:40:29.865Z,13.15
2019-05-20T10:42:58.770Z,12.75
2019-05-20T10:45:27.658Z,13.93
2019-05-20T10:47:56.480Z,13.10
2019-05-20T10:50:25.377Z,12.88
2019-05-20T10:52:54.379Z,12.58
2019-05-20T10:55:23.391Z,11.93
2019-05-20T10:57:52.818Z,12.43
2019-05-20T11:00:21.895Z,11.40
2019-05-20T11:02:50.769Z,11.48
2019-05-20T11:05:19.877Z,11.73
2019-05-20T11:07:49.219Z,10.98
2019-05-20T11:10:18.324Z,11.08
2019-05-20T11:12:47.286Z,11.20
2019-05-20T11:15:16.324Z,10.93
2019-05-20T11:17:45.422Z,10.13
2019-05-20T11:20:14.667Z,10.48
2019-05-20T11:22:43.640Z,11.12
2019-05-20T11:25:14.292Z,9.93
2019-05-20T11:27:43.129Z,10.88
2019-05-20T11:30:12.760Z,9.33
2019-05-20T11:32:41.782Z,10.63
2019-05-20T11:35:11.189Z,10.75
2019-05-20T11:37:40.050Z,11.20
2019-05-20T11:40:10.086Z,10.13
2019-05-20T11:42:39.621Z,8.40
2019-05-20T11:45:09.447Z,9.00
2019-05-20T11:47:38.545Z,9.60
2019-05-20T11:50:09.266Z,10.30
2019-05-20T11:52:38.337Z,10.87
2019-05-20T11:55:08.319Z,11.77
2019-05-20T11:57:37.317Z,12.27
2019-05-20T12:00:06.686Z,12.63
2019-05-20T12:02:35.531Z,14.90
2019-05-20T12:05:04.800Z,14.23
2019-05-20T12:07:33.930Z,12.37
2019-05-20T12:10:02.848Z,14.73
2019-05-20T12:12:31.769Z,12.70
2019-05-20T12:15:03.054Z,11.07
2019-05-20T12:17:32.630Z,10.13
2019-05-20T12:20:01.650Z,8.57
2019-05-20T12:22:30.608Z,9.63
2019-05-20T12:24:59.495Z,11.90
2019-05-20T12:27:28.465Z,9.20
2019-05-20T12:29:57.349Z,8.10
2019-05-20T12:32:26.379Z,8.20
2019-05-20T12:34:55.378Z,9.27
2019-05-20T12:37:24.611Z,9.47
2019-05-20T12:40:06.523Z,10.30
2019-05-20T12:42:24.258Z,10.10
2019-05-20T12:44:53.566Z,10.40
2019-05-20T12:47:22.511Z,9.93
2019-05-20T12:49:51.359Z,8.00
2019-05-20T12:52:20.434Z,9.70
2019-05-20T12:55:06.165Z,9.13
2019-05-20T12:57:20.055Z,9.87
2019-05-20T12:59:48.912Z,10.13
2019-05-20T13:02:17.790Z,10.37
2019-05-20T13:04:46.649Z,8.17
2019-05-20T13:07:15.652Z,8.90
2019-05-20T13:09:47.892Z,9.37
2019-05-20T13:12:16.828Z,9.53
2019-05-20T13:14:45.750Z,9.73
2019-05-20T13:17:14.641Z,10.43
2019-05-20T13:19:43.451Z,9.90
2019-05-20T13:22:13.139Z,10.23
2019-05-20T13:24:41.972Z,10.33
2019-05-20T13:27:10.907Z,10.13
2019-05-20T13:29:39.938Z,10.67
2019-05-20T13:32:08.859Z,10.80
2019-05-20T13:34:37.789Z,10.17
2019-05-20T13:37:06.759Z,10.67
2019-05-20T13:39:37.251Z,10.73
2019-05-20T13:42:06.100Z,10.80
2019-05-20T13:44:34.964Z,11.05
2019-05-20T13:47:03.798Z,11.97
2019-05-20T13:49:32.747Z,12.13
2019-05-20T13:52:01.739Z,13.43
2019-05-20T13:54:30.736Z,15.05
2019-05-20T13:56:59.870Z,13.85
2019-05-20T13:59:28.782Z,14.10
2019-05-20T14:02:01.460Z,14.73
2019-05-20T14:04:30.442Z,15.37
2019-05-20T14:06:59.387Z,15.37
2019-05-20T14:09:28.369Z,15.60
2019-05-20T14:11:57.251Z,15.23
2019-05-20T14:14:26.150Z,15.03
2019-05-20T14:16:54.986Z,14.90
2019-05-20T14:19:23.952Z,14.18
2019-05-20T14:21:52.998Z,13.08
2019-05-20T14:24:21.944Z,12.65
2019-05-20T14:26:50.867Z,12.00
2019-05-20T14:29:19.726Z,12.25
2019-05-20T14:31:48.745Z,11.83
2019-05-20T14:34:17.634Z,10.75
2019-05-20T14:36:46.586Z,10.82
2019-05-20T14:39:15.542Z,10.95
2019-05-20T14:41:44.357Z,9.83
2019-05-20T14:44:13.199Z,9.53
2019-05-20T14:46:42.053Z,10.10
2019-05-20T14:49:10.972Z,10.15
2019-05-20T14:51:39.871Z,10.72
2019-05-20T14:54:08.737Z,11.65
2019-05-20T14:56:37.557Z,11.88
2019-05-20T14:59:06.389Z,11.88
2019-05-20T15:01:35.270Z,12.23
2019-05-20T15:04:04.318Z,11.45
2019-05-20T15:06:33.250Z,12.85
2019-05-20T15:09:02.176Z,12.23
2019-05-20T15:11:38.310Z,13.15
2019-05-20T15:14:01.706Z,13.32
2019-05-20T15:16:30.673Z,12.50
2019-05-20T15:18:59.525Z,13.53
2019-05-20T15:21:29.574Z,14.05
2019-05-20T15:23:58.715Z,13.70
2019-05-20T15:26:27.654Z,13.18
2019-05-20T15:28:56.748Z,13.45
2019-05-20T15:31:25.706Z,13.62
2019-05-20T15:33:54.722Z,14.95
2019-05-20T15:36:23.563Z,13.03
2019-05-20T15:38:52.488Z,12.03
2019-05-20T15:41:21.367Z,13.38
2019-05-20T15:43:50.203Z,13.50
2019-05-20T15:46:19.050Z,12.95
2019-05-20T15:48:47.913Z,13.60
2019-05-20T15:51:16.758Z,14.45
2019-05-20T15:53:45.576Z,12.80
2019-05-20T15:56:14.541Z,11.85
2019-05-20T15:58:43.462Z,12.57
2019-05-20T16:01:12.398Z,14.38
2019-05-20T16:03:41.433Z,13.03
2019-05-20T16:06:10.407Z,12.73
2019-05-20T16:08:39.273Z,13.17
2019-05-20T16:11:08.314Z,12.80
2019-05-20T16:13:37.285Z,13.37
2019-05-20T16:16:06.693Z,12.50
2019-05-20T16:18:37.384Z,13.60
2019-05-20T16:21:12.515Z,14.03
2019-05-20T16:23:41.448Z,13.27
2019-05-20T16:26:10.505Z,14.03
2019-05-20T16:28:39.615Z,15.00
2019-05-20T16:31:08.623Z,14.90
2019-05-20T16:33:40.447Z,14.60
2019-05-20T16:36:09.513Z,13.17
2019-05-20T16:38:38.339Z,15.10
2019-05-20T16:41:07.190Z,14.67
2019-05-20T16:43:36.026Z,14.60
2019-05-20T16:46:08.089Z,14.60
2019-05-20T16:48:37.030Z,13.67
2019-05-20T16:51:05.982Z,14.73
2019-05-20T16:53:34.840Z,13.97
2019-05-20T16:56:04.153Z,13.80
2019-05-20T16:58:33.185Z,13.93
2019-05-20T17:01:02.164Z,14.00
2019-05-20T17:03:32.876Z,14.43
2019-05-20T17:06:01.828Z,13.53
2019-05-20T17:08:30.822Z,13.78
2019-05-20T17:11:18.927Z,13.30
2019-05-20T17:13:47.971Z,13.13
2019-05-20T17:16:16.905Z,13.23
2019-05-20T17:18:45.918Z,13.15
2019-05-20T17:21:14.874Z,14.33
2019-05-20T17:23:44.247Z,12.83
2019-05-20T17:26:13.338Z,15.20
2019-05-20T17:28:42.498Z,14.57
2019-05-20T17:31:14.061Z,14.70
2019-05-20T17:33:42.949Z,12.57
2019-05-20T17:36:12.028Z,13.63
2019-05-20T17:38:41.074Z,14.93
2019-05-20T17:41:10.194Z,15.17
2019-05-20T17:43:41.196Z,15.90
2019-05-20T17:46:10.640Z,14.93
2019-05-20T17:48:40.007Z,15.60
2019-05-20T17:51:09.070Z,16.17
2019-05-20T17:53:37.973Z,15.87
2019-05-20T17:56:07.173Z,14.30
2019-05-20T17:58:37.413Z,15.10
2019-05-20T18:01:15.170Z,14.60
2019-05-20T18:03:39.043Z,15.57
2019-05-20T18:06:08.405Z,14.27
2019-05-20T18:08:40.203Z,15.10
2019-05-20T18:11:09.256Z,15.40
2019-05-20T18:13:38.210Z,14.40
2019-05-20T18:16:07.174Z,14.80
2019-05-20T18:18:36.050Z,14.57
2019-05-20T18:21:05.276Z,13.83
2019-05-20T18:23:34.367Z,13.80
2019-05-20T18:26:03.782Z,14.93
2019-05-20T18:28:37.702Z,15.07
2019-05-20T18:31:06.605Z,14.97
2019-05-20T18:33:38.720Z,15.17
2019-05-20T18:36:07.634Z,14.93
2019-05-20T18:38:36.758Z,14.43
2019-05-20T18:41:07.122Z,15.27
2019-05-20T18:43:37.211Z,14.27
2019-05-20T18:46:06.308Z,13.60
2019-05-20T18:48:38.266Z,13.87
2019-05-20T18:51:07.264Z,14.07
2019-05-20T18:53:36.426Z,13.43
2019-05-20T18:56:05.469Z,14.60
2019-05-20T18:58:34.409Z,13.97
2019-05-20T19:01:03.628Z,14.40
2019-05-20T19:03:33.356Z,14.10
2019-05-20T19:06:02.897Z,14.47
2019-05-20T19:08:31.782Z,14.07
2019-05-20T19:11:02.691Z,13.13
2019-05-20T19:13:31.659Z,13.77
2019-05-20T19:16:00.771Z,13.47
2019-05-20T19:18:29.651Z,15.00
2019-05-20T19:20:58.490Z,13.40
2019-05-20T19:23:27.478Z,14.97
2019-05-20T19:25:56.434Z,15.13
2019-05-20T19:28:25.567Z,15.17
2019-05-20T19:31:02.319Z,14.53
2019-05-20T19:33:31.492Z,14.40
2019-05-20T19:36:00.477Z,14.17
2019-05-20T19:38:34.276Z,12.80
2019-05-20T19:41:00.578Z,13.20
2019-05-20T19:43:32.276Z,12.23
2019-05-20T19:46:13.340Z,11.50
2019-05-20T19:48:42.674Z,11.07
2019-05-20T19:51:11.943Z,11.90
2019-05-20T19:53:41.831Z,10.83
2019-05-20T19:56:11.150Z,10.07
2019-05-20T19:58:40.115Z,10.30
2019-05-20T20:01:09.134Z,10.10
2019-05-20T20:03:38.245Z,10.93
2019-05-20T20:06:07.315Z,10.50
2019-05-20T20:08:36.472Z,10.97
2019-05-20T20:11:05.734Z,10.43
2019-05-20T20:13:36.169Z,10.43
2019-05-20T20:16:06.156Z,9.40
2019-05-20T20:18:38.800Z,9.43
2019-05-20T20:21:08.171Z,10.37
2019-05-20T20:23:37.138Z,10.30
2019-05-20T20:26:06.530Z,10.67
2019-05-20T20:28:35.553Z,9.97
2019-05-20T20:31:04.659Z,10.10
2019-05-20T20:33:37.171Z,9.93
2019-05-20T20:36:08.031Z,9.00
2019-05-20T20:38:37.092Z,9.10
2019-05-20T20:41:08.764Z,9.73
2019-05-20T20:43:37.706Z,9.37
2019-05-20T20:46:06.760Z,9.80
2019-05-20T20:48:35.734Z,9.90
2019-05-20T20:51:04.871Z,10.00
2019-05-20T20:53:33.813Z,9.63
2019-05-20T20:56:02.743Z,9.57
2019-05-20T20:58:31.889Z,9.63
2019-05-20T21:01:00.817Z,9.80
2019-05-20T21:03:29.664Z,9.00
2019-05-20T21:05:59.668Z,8.43
2019-05-20T21:08:28.669Z,6.50
2019-05-20T21:10:57.562Z,7.00
2019-05-20T21:13:26.370Z,7.03
2019-05-20T21:15:58.470Z,7.03
2019-05-20T21:18:25.901Z,7.40
2019-05-20T21:20:56.171Z,6.67
2019-05-20T21:23:25.069Z,6.60
2019-05-20T21:25:54.325Z,7.27
2019-05-20T21:28:23.578Z,6.00
2019-05-20T21:30:52.804Z,6.27
2019-05-20T21:33:21.833Z,5.83
2019-05-20T21:35:50.835Z,6.10
2019-05-20T21:38:19.719Z,5.57
2019-05-20T21:40:48.747Z,6.00
2019-05-20T21:43:19.227Z,6.00
2019-05-20T21:45:48.267Z,5.90
2019-05-20T21:48:17.370Z,6.37
2019-05-20T21:50:46.305Z,5.33
2019-05-20T21:53:15.647Z,5.27
2019-05-20T21:55:44.616Z,5.50
2019-05-20T21:58:13.672Z,6.10
2019-05-20T22:00:55.499Z,5.60
2019-05-20T22:03:25.450Z,5.77
2019-05-20T22:05:54.600Z,6.43
2019-05-20T22:08:23.546Z,5.93
2019-05-20T22:10:52.465Z,5.13
2019-05-20T22:13:21.387Z,5.53
2019-05-20T22:15:50.453Z,5.30
2019-05-20T22:18:19.393Z,5.90
2019-05-20T22:20:48.463Z,6.00
2019-05-20T22:23:55.006Z,6.07
2019-05-20T22:26:24.537Z,5.73
2019-05-20T22:28:53.591Z,5.63
2019-05-20T22:31:22.516Z,6.30
2019-05-20T22:33:51.422Z,6.07
2019-05-20T22:36:20.426Z,5.60
2019-05-20T22:38:49.397Z,5.00
2019-05-20T22:41:18.315Z,5.57
2019-05-20T22:43:47.315Z,5.87
2019-05-20T22:46:16.194Z,6.13
2019-05-20T22:48:45.102Z,6.50
2019-05-20T22:51:14.153Z,5.87
2019-05-20T22:54:01.971Z,5.97
2019-05-20T22:56:32.030Z,5.80
2019-05-20T22:59:01.147Z,5.60
2019-05-20T23:01:29.997Z,5.80
2019-05-20T23:03:59.489Z,5.07
2019-05-20T23:06:28.416Z,5.83
2019-05-20T23:08:57.361Z,6.53
2019-05-20T23:11:26.424Z,6.23
2019-05-20T23:13:55.305Z,5.87
2019-05-20T23:16:24.150Z,6.57
2019-05-20T23:18:52.968Z,6.23
2019-05-20T23:21:21.796Z,6.03
2019-05-20T23:23:50.797Z,5.57
2019-05-20T23:26:19.706Z,6.20
2019-05-20T23:28:48.606Z,6.07
2019-05-20T23:31:17.776Z,7.57
2019-05-20T23:33:47.113Z,8.47
2019-05-20T23:36:16.082Z,8.83
2019-05-20T23:38:45.049Z,8.60
2019-05-20T23:41:14.100Z,9.03
2019-05-20T23:43:43.005Z,7.80
2019-05-20T23:46:11.910Z,9.17
2019-05-20T23:48:40.931Z,9.43
2019-05-20T23:51:09.770Z,10.17
2019-05-20T23:53:39.220Z,10.63
2019-05-20T23:56:08.061Z,10.80
2019-05-20T23:58:36.996Z,11.80
